createdAt,value
2023-02-27T00:01:35.107Z,75.43
2023-02-27T00:04:37.895Z,75.38
2023-02-27T00:07:41.146Z,75.49
2023-02-27T00:10:44.134Z,75.44
2023-02-27T00:13:46.799Z,74.77
2023-02-27T00:16:49.653Z,75.10
2023-02-27T00:19:52.976Z,75.10
2023-02-27T00:22:55.896Z,75.07
2023-02-27T00:26:00.991Z,74.94
2023-02-27T00:29:04.838Z,74.42
2023-02-27T00:32:07.498Z,74.21
2023-02-27T00:35:11.499Z,74.11
2023-02-27T00:38:14.286Z,74.51
2023-02-27T00:41:17.286Z,74.06
2023-02-27T00:44:19.947Z,73.70
2023-02-27T00:47:22.902Z,74.05
2023-02-27T00:50:26.370Z,73.89
2023-02-27T00:53:29.312Z,73.97
2023-02-27T00:56:32.188Z,73.41
2023-02-27T00:59:35.402Z,73.92
2023-02-27T01:02:38.990Z,73.91
2023-02-27T01:05:43.235Z,73.94
2023-02-27T01:08:45.801Z,74.38
2023-02-27T01:11:48.683Z,73.96
2023-02-27T01:14:51.368Z,73.61
2023-02-27T01:17:54.245Z,74.29
2023-02-27T01:20:57.132Z,74.51
2023-02-27T01:24:00.042Z,74.13
2023-02-27T01:27:02.620Z,74.83
2023-02-27T01:30:06.971Z,74.66
2023-02-27T01:33:10.249Z,74.85
2023-02-27T01:36:15.670Z,74.69
2023-02-27T01:39:18.478Z,74.24
2023-02-27T01:42:27.328Z,74.20
2023-02-27T01:45:31.942Z,74.08
2023-02-27T01:48:36.042Z,74.12
2023-02-27T01:51:50.958Z,73.95
2023-02-27T01:54:54.444Z,73.77
2023-02-27T01:57:57.183Z,74.43
2023-02-27T02:01:00.302Z,74.10
2023-02-27T02:04:18.120Z,74.23
2023-02-27T02:07:21.472Z,74.34
2023-02-27T02:10:24.758Z,74.08
2023-02-27T02:13:28.020Z,73.04
2023-02-27T02:17:11.105Z,73.49
2023-02-27T02:20:34.759Z,73.66
2023-02-27T02:24:15.782Z,73.57
2023-02-27T02:27:35.749Z,72.73
2023-02-27T02:31:12.738Z,72.89
2023-02-27T02:34:15.755Z,72.92
2023-02-27T02:37:52.093Z,72.62
2023-02-27T02:41:16.905Z,72.92
2023-02-27T02:44:38.365Z,73.17
2023-02-27T02:48:02.096Z,73.38
2023-02-27T02:51:09.251Z,72.49
2023-02-27T02:54:28.998Z,72.88
2023-02-27T02:57:39.017Z,73.28
2023-02-27T03:00:47.057Z,72.73
2023-02-27T03:03:55.497Z,72.29
2023-02-27T03:07:04.881Z,72.93
2023-02-27T03:10:21.621Z,72.64
2023-02-27T03:13:37.753Z,72.47
2023-02-27T03:16:43.412Z,72.41
2023-02-27T03:19:57.145Z,72.65
2023-02-27T03:23:04.987Z,72.27
2023-02-27T03:26:08.706Z,72.29
2023-02-27T03:29:17.131Z,71.92
2023-02-27T03:32:29.129Z,72.01
2023-02-27T03:36:04.797Z,71.55
2023-02-27T03:39:44.116Z,71.63
2023-02-27T03:42:53.728Z,71.79
2023-02-27T03:45:59.571Z,71.33
2023-02-27T03:49:02.312Z,70.85
2023-02-27T03:52:05.275Z,70.97
2023-02-27T03:55:08.603Z,70.76
2023-02-27T03:58:11.741Z,70.87
2023-02-27T04:01:14.654Z,70.82
2023-02-27T04:04:18.790Z,70.58
2023-02-27T04:07:48.843Z,70.12
2023-02-27T04:11:00.166Z,69.79
2023-02-27T04:14:25.594Z,70.03
2023-02-27T04:17:31.055Z,70.09
2023-02-27T04:20:51.005Z,70.34
2023-02-27T04:24:09.608Z,70.36
2023-02-27T04:27:15.155Z,71.17
2023-02-27T04:30:49.378Z,70.26
2023-02-27T04:34:16.087Z,70.10
2023-02-27T04:37:34.548Z,70.52
2023-02-27T04:40:44.047Z,70.86
2023-02-27T04:43:47.952Z,70.68
2023-02-27T04:46:51.671Z,71.61
2023-02-27T04:49:57.356Z,71.20
2023-02-27T04:53:09.963Z,70.55
2023-02-27T04:56:29.916Z,70.75
2023-02-27T04:59:39.269Z,70.79
2023-02-27T05:02:45.503Z,70.38
2023-02-27T05:05:49.012Z,69.63
2023-02-27T05:09:01.470Z,69.80
2023-02-27T05:12:11.044Z,69.98
2023-02-27T05:15:17.473Z,69.42
2023-02-27T05:18:22.018Z,69.51
2023-02-27T05:21:34.481Z,69.86
2023-02-27T05:25:08.206Z,69.69
2023-02-27T05:28:20.456Z,69.66
2023-02-27T05:32:14.927Z,69.52
2023-02-27T05:35:24.218Z,69.52
2023-02-27T05:38:48.535Z,69.61
2023-02-27T05:41:55.094Z,69.17
2023-02-27T05:45:04.203Z,68.95
2023-02-27T05:48:19.523Z,68.45
2023-02-27T05:51:25.692Z,72.44
2023-02-27T05:54:39.156Z,66.26
2023-02-27T05:57:44.601Z,66.83
2023-02-27T06:00:54.512Z,67.64
2023-02-27T06:03:58.089Z,67.90
2023-02-27T06:07:00.864Z,68.33
2023-02-27T06:10:05.454Z,68.53
2023-02-27T06:13:08.090Z,69.16
2023-02-27T06:16:13.096Z,68.92
2023-02-27T06:19:15.898Z,69.13
2023-02-27T06:22:18.725Z,68.64
2023-02-27T06:25:22.120Z,70.02
2023-02-27T06:28:25.435Z,66.35
2023-02-27T06:31:28.031Z,65.16
2023-02-27T06:34:30.898Z,65.63
2023-02-27T06:37:33.709Z,66.89
2023-02-27T06:40:38.331Z,67.47
2023-02-27T06:43:40.892Z,67.01
2023-02-27T06:46:43.749Z,66.83
2023-02-27T06:49:46.408Z,67.37
2023-02-27T06:52:49.447Z,66.32
2023-02-27T06:55:52.309Z,66.58
2023-02-27T06:58:55.161Z,66.85
2023-02-27T07:01:59.198Z,67.14
2023-02-27T07:05:08.290Z,66.58
2023-02-27T07:08:11.487Z,66.14
2023-02-27T07:11:14.480Z,66.74
2023-02-27T07:14:17.452Z,67.05
2023-02-27T07:17:20.347Z,67.26
2023-02-27T07:20:23.689Z,66.87
2023-02-27T07:23:26.555Z,66.21
2023-02-27T07:26:29.430Z,65.76
2023-02-27T07:29:32.539Z,65.60
2023-02-27T07:32:35.138Z,65.68
2023-02-27T07:35:38.000Z,65.46
2023-02-27T07:38:40.609Z,65.12
2023-02-27T07:41:43.568Z,65.20
2023-02-27T07:44:50.733Z,64.71
2023-02-27T07:47:53.641Z,64.02
2023-02-27T07:50:56.839Z,63.32
2023-02-27T07:53:59.862Z,63.12
2023-02-27T07:57:02.468Z,62.59
2023-02-27T08:00:07.517Z,62.43
2023-02-27T08:03:14.635Z,61.31
2023-02-27T08:06:17.528Z,61.50
2023-02-27T08:09:20.066Z,61.19
2023-02-27T08:12:23.042Z,60.81
2023-02-27T08:15:25.578Z,60.07
2023-02-27T08:18:28.733Z,60.14
2023-02-27T08:21:31.417Z,59.62
2023-02-27T08:24:34.249Z,58.78
2023-02-27T08:27:37.741Z,58.93
2023-02-27T08:30:41.155Z,59.17
2023-02-27T08:33:43.978Z,58.99
2023-02-27T08:36:46.780Z,57.96
2023-02-27T08:39:49.516Z,58.20
2023-02-27T08:42:52.398Z,57.77
2023-02-27T08:45:54.947Z,57.22
2023-02-27T08:48:58.312Z,57.74
2023-02-27T08:52:01.435Z,57.87
2023-02-27T08:55:04.999Z,57.67
2023-02-27T08:58:07.607Z,58.39
2023-02-27T09:01:10.511Z,56.14
2023-02-27T09:04:13.155Z,57.07
2023-02-27T09:07:15.913Z,56.37
2023-02-27T09:10:19.154Z,58.25
2023-02-27T09:13:22.349Z,56.12
2023-02-27T09:16:25.071Z,57.07
2023-02-27T09:19:28.128Z,55.98
2023-02-27T09:22:31.328Z,57.31
2023-02-27T09:25:35.037Z,57.08
2023-02-27T09:28:40.053Z,57.33
2023-02-27T09:31:42.972Z,58.03
2023-02-27T09:34:45.753Z,57.33
2023-02-27T09:37:49.657Z,57.78
2023-02-27T09:40:53.851Z,57.81
2023-02-27T09:43:56.837Z,57.88
2023-02-27T09:46:59.380Z,57.47
2023-02-27T09:50:34.125Z,57.10
2023-02-27T09:53:41.670Z,57.04
2023-02-27T09:57:05.565Z,57.15
2023-02-27T10:00:24.157Z,57.03
2023-02-27T10:03:45.485Z,56.81
2023-02-27T10:07:03.942Z,55.46
2023-02-27T10:10:28.343Z,54.95
2023-02-27T10:13:42.961Z,55.49
2023-02-27T10:16:46.735Z,55.89
2023-02-27T10:19:50.509Z,55.77
2023-02-27T10:22:54.666Z,55.54
2023-02-27T10:25:57.495Z,54.89
2023-02-27T10:29:22.914Z,54.26
2023-02-27T10:32:30.095Z,53.00
2023-02-27T10:35:38.605Z,53.06
2023-02-27T10:38:44.693Z,53.62
2023-02-27T10:41:47.861Z,53.21
2023-02-27T10:44:53.881Z,50.88
2023-02-27T10:47:57.328Z,51.92
2023-02-27T10:51:19.080Z,52.41
2023-02-27T10:54:24.306Z,50.44
2023-02-27T10:57:43.350Z,50.26
2023-02-27T11:00:54.397Z,50.01
2023-02-27T11:03:57.098Z,49.71
2023-02-27T11:07:01.784Z,48.92
2023-02-27T11:10:16.883Z,50.59
2023-02-27T11:13:21.824Z,50.03
2023-02-27T11:16:24.293Z,50.92
2023-02-27T11:19:35.332Z,51.09
2023-02-27T11:22:38.191Z,50.63
2023-02-27T11:25:41.556Z,50.82
2023-02-27T11:28:44.063Z,49.72
2023-02-27T11:31:46.807Z,49.38
2023-02-27T11:34:50.685Z,50.08
2023-02-27T11:37:55.653Z,49.56
2023-02-27T11:41:09.057Z,49.99
2023-02-27T11:44:17.081Z,49.02
2023-02-27T11:47:40.012Z,49.69
2023-02-27T11:51:10.521Z,50.54
2023-02-27T11:54:32.477Z,48.86
2023-02-27T11:57:38.561Z,49.19
2023-02-27T12:00:46.032Z,47.93
2023-02-27T12:04:05.480Z,48.70
2023-02-27T12:07:08.026Z,49.59
2023-02-27T12:10:22.189Z,49.59
2023-02-27T12:13:31.805Z,48.68
2023-02-27T12:16:39.674Z,48.66
2023-02-27T12:19:45.965Z,48.00
2023-02-27T12:22:51.917Z,49.34
2023-02-27T12:26:04.146Z,49.12
2023-02-27T12:29:40.519Z,48.98
2023-02-27T12:32:49.170Z,47.92
2023-02-27T12:35:58.549Z,48.24
2023-02-27T12:39:01.121Z,49.06
2023-02-27T12:42:17.579Z,48.74
2023-02-27T12:45:34.899Z,49.35
2023-02-27T12:49:09.489Z,49.30
2023-02-27T12:52:29.511Z,48.72
2023-02-27T12:55:36.995Z,48.47
2023-02-27T12:58:45.314Z,48.78
2023-02-27T13:01:59.901Z,46.02
2023-02-27T13:05:27.182Z,47.27
2023-02-27T13:08:43.438Z,44.44
2023-02-27T13:11:51.786Z,43.38
2023-02-27T13:15:31.440Z,42.24
2023-02-27T13:18:41.941Z,45.36
2023-02-27T13:22:16.450Z,44.64
2023-02-27T13:25:19.881Z,45.51
2023-02-27T13:28:25.951Z,46.25
2023-02-27T13:31:44.010Z,44.72
2023-02-27T13:34:50.534Z,43.34
2023-02-27T13:38:02.243Z,42.98
2023-02-27T13:41:20.348Z,43.01
2023-02-27T13:44:22.832Z,42.66
2023-02-27T13:47:31.410Z,42.69
2023-02-27T13:50:33.891Z,44.86
2023-02-27T13:53:37.204Z,44.86
2023-02-27T13:56:40.845Z,46.39
2023-02-27T13:59:52.450Z,46.44
2023-02-27T14:03:00.705Z,46.59
2023-02-27T14:06:06.169Z,48.17
2023-02-27T14:09:15.229Z,49.30
2023-02-27T14:12:45.413Z,48.97
2023-02-27T14:15:52.505Z,50.15
2023-02-27T14:18:57.933Z,50.50
2023-02-27T14:22:10.944Z,50.93
2023-02-27T14:25:18.081Z,49.79
2023-02-27T14:28:26.258Z,49.67
2023-02-27T14:31:35.320Z,51.06
2023-02-27T14:34:40.392Z,50.23
2023-02-27T14:37:43.230Z,50.79
2023-02-27T14:41:03.411Z,50.44
2023-02-27T14:44:22.692Z,50.33
2023-02-27T14:47:35.064Z,49.66
2023-02-27T14:50:40.591Z,49.39
2023-02-27T14:53:43.271Z,48.78
2023-02-27T14:57:01.062Z,49.11
2023-02-27T15:00:05.165Z,48.60
2023-02-27T15:03:17.942Z,48.75
2023-02-27T15:06:25.140Z,48.64
2023-02-27T15:09:44.595Z,49.16
2023-02-27T15:12:47.698Z,49.33
2023-02-27T15:15:52.422Z,48.77
2023-02-27T15:18:57.355Z,49.13
2023-02-27T15:22:05.169Z,49.60
2023-02-27T15:25:31.953Z,51.06
2023-02-27T15:28:38.179Z,50.29
2023-02-27T15:31:40.838Z,50.41
2023-02-27T15:34:44.588Z,50.86
2023-02-27T15:37:51.754Z,51.44
2023-02-27T15:40:56.226Z,51.65
2023-02-27T15:44:01.810Z,54.34
2023-02-27T15:47:05.254Z,50.88
2023-02-27T15:50:16.792Z,50.44
2023-02-27T15:53:21.686Z,50.90
2023-02-27T15:56:35.677Z,52.11
2023-02-27T15:59:41.188Z,52.70
2023-02-27T16:02:46.895Z,53.42
2023-02-27T16:05:52.040Z,54.06
2023-02-27T16:08:58.886Z,55.47
2023-02-27T16:12:24.440Z,56.26
2023-02-27T16:15:31.586Z,56.64
2023-02-27T16:18:36.906Z,56.85
2023-02-27T16:21:39.962Z,57.54
2023-02-27T16:24:43.857Z,57.67
2023-02-27T16:27:49.596Z,58.38
2023-02-27T16:30:53.990Z,58.48
2023-02-27T16:33:59.785Z,57.13
2023-02-27T16:37:04.681Z,57.80
2023-02-27T16:40:24.815Z,58.96
2023-02-27T16:43:28.007Z,57.11
2023-02-27T16:46:31.088Z,57.04
2023-02-27T16:49:34.119Z,57.79
2023-02-27T16:52:37.144Z,59.26
2023-02-27T16:55:41.056Z,59.80
2023-02-27T16:58:44.883Z,59.44
2023-02-27T17:01:47.904Z,60.74
2023-02-27T17:04:52.237Z,60.82
2023-02-27T17:07:55.309Z,61.04
2023-02-27T17:10:58.287Z,61.73
2023-02-27T17:14:02.356Z,61.90
2023-02-27T17:17:05.647Z,61.95
2023-02-27T17:20:10.645Z,62.14
2023-02-27T17:23:14.473Z,63.06
2023-02-27T17:26:17.568Z,62.32
2023-02-27T17:29:21.070Z,62.94
2023-02-27T17:32:24.429Z,60.51
2023-02-27T17:35:27.251Z,61.32
2023-02-27T17:38:31.014Z,61.98
2023-02-27T17:41:34.164Z,62.43
2023-02-27T17:44:37.217Z,63.15
2023-02-27T17:47:40.427Z,63.67
2023-02-27T17:50:45.489Z,64.11
2023-02-27T17:53:48.017Z,64.53
2023-02-27T17:56:51.057Z,64.94
2023-02-27T17:59:53.826Z,62.57
2023-02-27T18:02:56.894Z,62.57
2023-02-27T18:06:00.116Z,63.66
2023-02-27T18:09:06.266Z,64.31
2023-02-27T18:12:09.660Z,64.97
2023-02-27T18:15:13.532Z,65.45
2023-02-27T18:18:16.738Z,66.18
2023-02-27T18:21:20.932Z,66.58
2023-02-27T18:24:23.993Z,66.36
2023-02-27T18:27:28.086Z,66.76
2023-02-27T18:30:33.565Z,66.00
2023-02-27T18:33:36.651Z,66.06
2023-02-27T18:36:40.452Z,66.25
2023-02-27T18:39:44.450Z,66.42
2023-02-27T18:42:48.476Z,66.71
2023-02-27T18:45:51.597Z,67.44
2023-02-27T18:48:54.661Z,66.90
2023-02-27T18:51:58.648Z,67.51
2023-02-27T18:55:02.083Z,67.81
2023-02-27T18:58:06.176Z,68.10
2023-02-27T19:01:18.898Z,68.55
2023-02-27T19:04:22.777Z,69.37
2023-02-27T19:07:26.136Z,68.01
2023-02-27T19:10:30.071Z,67.59
2023-02-27T19:13:34.303Z,67.79
2023-02-27T19:16:37.318Z,68.44
2023-02-27T19:19:40.675Z,69.01
2023-02-27T19:22:43.570Z,69.94
2023-02-27T19:25:49.122Z,70.17
2023-02-27T19:28:53.977Z,69.80
2023-02-27T19:31:57.888Z,69.85
2023-02-27T19:35:00.557Z,70.43
2023-02-27T19:38:03.966Z,69.65
2023-02-27T19:41:11.057Z,69.26
2023-02-27T19:44:14.228Z,69.16
2023-02-27T19:47:17.632Z,69.39
2023-02-27T19:50:20.851Z,69.54
2023-02-27T19:53:26.463Z,69.45
2023-02-27T19:56:30.296Z,69.46
2023-02-27T19:59:33.688Z,69.53
2023-02-27T20:02:40.012Z,69.80
2023-02-27T20:05:45.509Z,70.10
2023-02-27T20:08:48.507Z,70.63
2023-02-27T20:12:00.538Z,71.50
2023-02-27T20:15:08.872Z,71.89
2023-02-27T20:18:12.256Z,72.19
2023-02-27T20:21:21.016Z,72.23
2023-02-27T20:24:25.375Z,72.23
2023-02-27T20:27:28.396Z,71.61
2023-02-27T20:30:32.012Z,71.29
2023-02-27T20:33:35.226Z,71.09
2023-02-27T20:36:39.781Z,70.82
2023-02-27T20:39:45.456Z,70.58
2023-02-27T20:42:48.626Z,70.95
2023-02-27T20:45:51.589Z,71.69
2023-02-27T20:49:03.250Z,71.44
2023-02-27T20:52:06.422Z,71.19
2023-02-27T20:55:10.061Z,71.63
2023-02-27T20:58:13.076Z,72.40
2023-02-27T21:01:17.602Z,72.53
2023-02-27T21:04:21.263Z,73.09
2023-02-27T21:07:24.621Z,72.55
2023-02-27T21:10:27.749Z,72.51
2023-02-27T21:13:30.728Z,72.26
2023-02-27T21:16:33.658Z,72.20
2023-02-27T21:19:37.868Z,72.05
2023-02-27T21:22:40.793Z,72.60
2023-02-27T21:25:44.129Z,72.74
2023-02-27T21:28:52.246Z,72.85
2023-02-27T21:31:55.373Z,72.78
2023-02-27T21:34:58.529Z,72.76
2023-02-27T21:38:01.684Z,72.89
2023-02-27T21:41:11.420Z,73.39
2023-02-27T21:44:17.002Z,73.28
2023-02-27T21:47:20.831Z,73.79
2023-02-27T21:50:23.799Z,73.94
2023-02-27T21:53:26.978Z,74.26
2023-02-27T21:56:30.590Z,74.74
2023-02-27T21:59:33.232Z,75.21
2023-02-27T22:02:36.271Z,75.57
2023-02-27T22:05:43.185Z,75.99
2023-02-27T22:08:45.742Z,76.41
2023-02-27T22:11:49.110Z,76.66
2023-02-27T22:14:51.678Z,76.99
2023-02-27T22:17:55.872Z,77.82
2023-02-27T22:20:59.535Z,77.66
2023-02-27T22:24:02.675Z,77.94
2023-02-27T22:27:05.376Z,77.73
2023-02-27T22:30:09.799Z,78.15
2023-02-27T22:33:13.030Z,78.04
2023-02-27T22:36:18.894Z,78.36
2023-02-27T22:39:21.817Z,78.65
2023-02-27T22:42:24.779Z,78.90
2023-02-27T22:45:27.418Z,79.00
2023-02-27T22:48:30.270Z,79.43
2023-02-27T22:51:33.231Z,79.13
2023-02-27T22:54:36.578Z,79.17
2023-02-27T22:57:39.277Z,79.22
2023-02-27T23:00:42.293Z,79.09
2023-02-27T23:03:46.527Z,79.16
2023-02-27T23:06:52.456Z,78.43
2023-02-27T23:09:55.280Z,78.48
2023-02-27T23:12:58.264Z,78.45
2023-02-27T23:16:01.828Z,79.02
2023-02-27T23:19:04.960Z,79.56
2023-02-27T23:22:08.721Z,79.75
2023-02-27T23:25:11.890Z,79.72
2023-02-27T23:28:14.492Z,79.75
2023-02-27T23:31:17.394Z,78.81
2023-02-27T23:34:20.037Z,78.37
2023-02-27T23:37:22.874Z,78.58
2023-02-27T23:40:27.526Z,79.02
2023-02-27T23:43:48.879Z,78.93
2023-02-27T23:46:51.376Z,78.91
2023-02-27T23:49:54.283Z,78.76
2023-02-27T23:52:58.994Z,79.41
2023-02-27T23:56:15.060Z,80.56
2023-02-27T23:59:17.619Z,80.14
